sensor_id;sensor_type;location;lat;lon;timestamp;P1;durP1;ratioP1;P2;durP2;ratioP2
16119;SDS011;12670;53.502;10.252;2024-01-15T00:00:56;11.97;;;1.90;;
16119;SDS011;12670;53.502;10.252;2024-01-15T00:03:59;10.43;;;1.90;;
16119;SDS011;12670;53.502;10.252;2024-01-15T00:07:02;9.53;;;1.60;;
16119;SDS011;12670;53.502;10.252;2024-01-15T00:10:06;7.47;;;1.73;;
16119;SDS011;12670;53.502;10.252;2024-01-15T00:13:10;7.83;;;1.77;;
16119;SDS011;12670;53.502;10.252;2024-01-15T00:16:13;9.47;;;1.67;;
16119;SDS011;12670;53.502;10.252;2024-01-15T00:19:15;10.30;;;1.50;;
16119;SDS011;12670;53.502;10.252;2024-01-15T00:22:18;12.77;;;1.77;;
16119;SDS011;12670;53.502;10.252;2024-01-15T00:25:21;9.43;;;1.43;;
16119;SDS011;12670;53.502;10.252;2024-01-15T00:28:25;11.33;;;1.80;;
16119;SDS011;12670;53.502;10.252;2024-01-15T00:31:27;5.53;;;1.60;;
16119;SDS011;12670;53.502;10.252;2024-01-15T00:34:31;6.27;;;1.70;;
16119;SDS011;12670;53.502;10.252;2024-01-15T00:37:34;16.70;;;2.00;;
16119;SDS011;12670;53.502;10.252;2024-01-15T00:40:36;10.40;;;1.93;;
16119;SDS011;12670;53.502;10.252;2024-01-15T00:43:40;11.50;;;2.00;;
16119;SDS011;12670;53.502;10.252;2024-01-15T00:46:43;11.33;;;1.70;;
16119;SDS011;12670;53.502;10.252;2024-01-15T00:49:47;20.83;;;2.00;;
16119;SDS011;12670;53.502;10.252;2024-01-15T00:52:49;9.87;;;1.90;;
16119;SDS011;12670;53.502;10.252;2024-01-15T00:55:52;13.90;;;2.60;;
16119;SDS011;12670;53.502;10.252;2024-01-15T00:58:56;8.00;;;1.77;;
16119;SDS011;12670;53.502;10.252;2024-01-15T01:01:59;12.90;;;2.13;;
16119;SDS011;12670;53.502;10.252;2024-01-15T01:05:02;10.77;;;2.10;;
16119;SDS011;12670;53.502;10.252;2024-01-15T01:08:05;11.00;;;1.83;;
16119;SDS011;12670;53.502;10.252;2024-01-15T01:11:12;13.13;;;2.20;;
16119;SDS011;12670;53.502;10.252;2024-01-15T01:14:16;10.87;;;2.00;;
16119;SDS011;12670;53.502;10.252;2024-01-15T01:17:19;7.87;;;1.53;;
16119;SDS011;12670;53.502;10.252;2024-01-15T01:20:22;10.40;;;2.00;;
16119;SDS011;12670;53.502;10.252;2024-01-15T01:23:24;13.03;;;2.47;;
16119;SDS011;12670;53.502;10.252;2024-01-15T01:26:27;14.77;;;2.67;;
16119;SDS011;12670;53.502;10.252;2024-01-15T01:29:31;13.77;;;1.73;;
16119;SDS011;12670;53.502;10.252;2024-01-15T01:32:34;14.67;;;1.97;;
16119;SDS011;12670;53.502;10.252;2024-01-15T01:35:36;13.93;;;2.03;;
16119;SDS011;12670;53.502;10.252;2024-01-15T01:38:39;11.83;;;2.33;;
16119;SDS011;12670;53.502;10.252;2024-01-15T01:41:43;13.70;;;2.80;;
16119;SDS011;12670;53.502;10.252;2024-01-15T01:44:47;9.03;;;1.97;;
16119;SDS011;12670;53.502;10.252;2024-01-15T01:47:49;13.37;;;2.30;;
16119;SDS011;12670;53.502;10.252;2024-01-15T01:50:52;10.27;;;1.90;;
16119;SDS011;12670;53.502;10.252;2024-01-15T01:53:57;14.63;;;2.00;;
16119;SDS011;12670;53.502;10.252;2024-01-15T01:57:00;14.20;;;2.17;;
16119;SDS011;12670;53.502;10.252;2024-01-15T02:00:08;10.23;;;1.83;;
16119;SDS011;12670;53.502;10.252;2024-01-15T02:03:11;9.53;;;1.73;;
16119;SDS011;12670;53.502;10.252;2024-01-15T02:06:14;14.23;;;1.97;;
16119;SDS011;12670;53.502;10.252;2024-01-15T02:09:17;7.67;;;1.70;;
16119;SDS011;12670;53.502;10.252;2024-01-15T02:12:20;9.67;;;2.00;;
16119;SDS011;12670;53.502;10.252;2024-01-15T02:15:24;10.03;;;1.77;;
16119;SDS011;12670;53.502;10.252;2024-01-15T02:18:27;8.53;;;1.90;;
16119;SDS011;12670;53.502;10.252;2024-01-15T02:21:30;13.63;;;2.33;;
16119;SDS011;12670;53.502;10.252;2024-01-15T02:24:35;9.83;;;2.07;;
16119;SDS011;12670;53.502;10.252;2024-01-15T02:27:38;11.97;;;2.00;;
16119;SDS011;12670;53.502;10.252;2024-01-15T02:30:41;6.57;;;1.60;;
16119;SDS011;12670;53.502;10.252;2024-01-15T02:33:45;11.30;;;1.60;;
16119;SDS011;12670;53.502;10.252;2024-01-15T02:36:48;8.90;;;1.67;;
16119;SDS011;12670;53.502;10.252;2024-01-15T02:39:52;9.57;;;1.50;;
16119;SDS011;12670;53.502;10.252;2024-01-15T02:42:55;19.27;;;2.10;;
16119;SDS011;12670;53.502;10.252;2024-01-15T02:45:57;6.63;;;1.50;;
16119;SDS011;12670;53.502;10.252;2024-01-15T02:49:00;13.27;;;1.87;;
16119;SDS011;12670;53.502;10.252;2024-01-15T02:52:03;7.67;;;1.67;;
16119;SDS011;12670;53.502;10.252;2024-01-15T02:55:08;6.37;;;2.30;;
16119;SDS011;12670;53.502;10.252;2024-01-15T02:58:11;9.67;;;2.10;;
16119;SDS011;12670;53.502;10.252;2024-01-15T03:01:13;11.33;;;2.17;;
16119;SDS011;12670;53.502;10.252;2024-01-15T03:04:16;10.60;;;1.77;;
16119;SDS011;12670;53.502;10.252;2024-01-15T03:07:19;10.73;;;2.20;;
16119;SDS011;12670;53.502;10.252;2024-01-15T03:10:23;9.03;;;1.73;;
16119;SDS011;12670;53.502;10.252;2024-01-15T03:13:26;11.80;;;2.33;;
16119;SDS011;12670;53.502;10.252;2024-01-15T03:16:28;12.47;;;1.80;;
16119;SDS011;12670;53.502;10.252;2024-01-15T03:19:34;8.53;;;1.80;;
16119;SDS011;12670;53.502;10.252;2024-01-15T03:22:37;12.87;;;2.30;;
16119;SDS011;12670;53.502;10.252;2024-01-15T03:25:41;13.57;;;1.97;;
16119;SDS011;12670;53.502;10.252;2024-01-15T03:28:44;7.87;;;1.50;;
16119;SDS011;12670;53.502;10.252;2024-01-15T03:31:46;10.27;;;1.90;;
16119;SDS011;12670;53.502;10.252;2024-01-15T03:34:49;6.67;;;1.60;;
16119;SDS011;12670;53.502;10.252;2024-01-15T03:37:53;7.17;;;1.80;;
16119;SDS011;12670;53.502;10.252;2024-01-15T03:40:57;9.57;;;1.63;;
16119;SDS011;12670;53.502;10.252;2024-01-15T03:44:00;8.73;;;1.57;;
16119;SDS011;12670;53.502;10.252;2024-01-15T03:47:03;12.93;;;2.00;;
16119;SDS011;12670;53.502;10.252;2024-01-15T03:50:06;9.67;;;2.03;;
16119;SDS011;12670;53.502;10.252;2024-01-15T03:53:09;9.07;;;2.23;;
16119;SDS011;12670;53.502;10.252;2024-01-15T03:56:13;6.20;;;1.67;;
16119;SDS011;12670;53.502;10.252;2024-01-15T03:59:16;11.53;;;1.90;;
16119;SDS011;12670;53.502;10.252;2024-01-15T04:02:19;16.90;;;2.33;;
16119;SDS011;12670;53.502;10.252;2024-01-15T04:05:21;9.17;;;2.30;;
16119;SDS011;12670;53.502;10.252;2024-01-15T04:08:24;19.00;;;2.60;;
16119;SDS011;12670;53.502;10.252;2024-01-15T04:11:28;9.37;;;1.97;;
16119;SDS011;12670;53.502;10.252;2024-01-15T04:14:31;11.90;;;2.60;;
16119;SDS011;12670;53.502;10.252;2024-01-15T04:17:33;8.97;;;2.73;;
16119;SDS011;12670;53.502;10.252;2024-01-15T04:20:36;8.80;;;2.20;;
16119;SDS011;12670;53.502;10.252;2024-01-15T04:23:39;13.17;;;2.30;;
16119;SDS011;12670;53.502;10.252;2024-01-15T04:26:43;17.20;;;2.10;;
16119;SDS011;12670;53.502;10.252;2024-01-15T04:29:46;15.57;;;2.17;;
16119;SDS011;12670;53.502;10.252;2024-01-15T04:32:49;16.23;;;2.13;;
16119;SDS011;12670;53.502;10.252;2024-01-15T04:35:51;13.30;;;2.07;;
16119;SDS011;12670;53.502;10.252;2024-01-15T04:38:54;17.43;;;2.30;;
16119;SDS011;12670;53.502;10.252;2024-01-15T04:41:58;18.27;;;2.00;;
16119;SDS011;12670;53.502;10.252;2024-01-15T04:45:01;16.73;;;2.50;;
16119;SDS011;12670;53.502;10.252;2024-01-15T04:48:03;12.23;;;1.97;;
16119;SDS011;12670;53.502;10.252;2024-01-15T04:51:08;21.50;;;2.87;;
16119;SDS011;12670;53.502;10.252;2024-01-15T04:54:11;18.17;;;2.43;;
16119;SDS011;12670;53.502;10.252;2024-01-15T04:57:20;18.63;;;2.37;;
16119;SDS011;12670;53.502;10.252;2024-01-15T05:00:22;24.87;;;3.07;;
16119;SDS011;12670;53.502;10.252;2024-01-15T05:03:25;21.13;;;2.70;;
16119;SDS011;12670;53.502;10.252;2024-01-15T05:06:28;23.23;;;2.67;;
16119;SDS011;12670;53.502;10.252;2024-01-15T05:09:31;14.53;;;2.77;;
16119;SDS011;12670;53.502;10.252;2024-01-15T05:12:35;14.37;;;2.47;;
16119;SDS011;12670;53.502;10.252;2024-01-15T05:15:38;23.87;;;2.83;;
16119;SDS011;12670;53.502;10.252;2024-01-15T05:18:40;18.20;;;3.03;;
16119;SDS011;12670;53.502;10.252;2024-01-15T05:21:44;13.17;;;2.03;;
16119;SDS011;12670;53.502;10.252;2024-01-15T05:24:47;13.40;;;2.37;;
16119;SDS011;12670;53.502;10.252;2024-01-15T05:27:51;20.87;;;2.50;;
16119;SDS011;12670;53.502;10.252;2024-01-15T05:30:54;11.33;;;2.37;;
16119;SDS011;12670;53.502;10.252;2024-01-15T05:33:57;16.97;;;2.80;;
16119;SDS011;12670;53.502;10.252;2024-01-15T05:37:00;13.93;;;2.30;;
16119;SDS011;12670;53.502;10.252;2024-01-15T05:40:02;19.23;;;2.60;;
16119;SDS011;12670;53.502;10.252;2024-01-15T05:43:08;19.43;;;2.63;;
16119;SDS011;12670;53.502;10.252;2024-01-15T05:46:10;28.50;;;2.37;;
16119;SDS011;12670;53.502;10.252;2024-01-15T05:49:13;15.13;;;2.97;;
16119;SDS011;12670;53.502;10.252;2024-01-15T05:52:16;10.80;;;1.80;;
16119;SDS011;12670;53.502;10.252;2024-01-15T05:55:18;12.17;;;2.07;;
16119;SDS011;12670;53.502;10.252;2024-01-15T05:58:22;16.07;;;2.60;;
16119;SDS011;12670;53.502;10.252;2024-01-15T06:01:25;13.43;;;2.53;;
16119;SDS011;12670;53.502;10.252;2024-01-15T06:04:28;25.67;;;2.90;;
16119;SDS011;12670;53.502;10.252;2024-01-15T06:07:31;11.93;;;2.27;;
16119;SDS011;12670;53.502;10.252;2024-01-15T06:10:33;28.87;;;7.17;;
16119;SDS011;12670;53.502;10.252;2024-01-15T06:13:38;24.63;;;5.20;;
16119;SDS011;12670;53.502;10.252;2024-01-15T06:16:41;25.77;;;6.03;;
16119;SDS011;12670;53.502;10.252;2024-01-15T06:19:44;24.73;;;4.20;;
16119;SDS011;12670;53.502;10.252;2024-01-15T06:22:46;15.50;;;2.90;;
16119;SDS011;12670;53.502;10.252;2024-01-15T06:25:49;19.33;;;2.47;;
16119;SDS011;12670;53.502;10.252;2024-01-15T06:28:53;15.37;;;3.03;;
16119;SDS011;12670;53.502;10.252;2024-01-15T06:31:56;17.80;;;2.50;;
16119;SDS011;12670;53.502;10.252;2024-01-15T06:34:59;21.33;;;4.70;;
16119;SDS011;12670;53.502;10.252;2024-01-15T06:38:02;26.50;;;3.13;;
16119;SDS011;12670;53.502;10.252;2024-01-15T06:41:05;14.60;;;3.07;;
16119;SDS011;12670;53.502;10.252;2024-01-15T06:44:09;19.60;;;2.63;;
16119;SDS011;12670;53.502;10.252;2024-01-15T06:47:12;16.87;;;2.50;;
16119;SDS011;12670;53.502;10.252;2024-01-15T06:50:15;13.73;;;2.23;;
16119;SDS011;12670;53.502;10.252;2024-01-15T06:53:18;21.40;;;2.70;;
16119;SDS011;12670;53.502;10.252;2024-01-15T06:56:21;12.47;;;2.30;;
16119;SDS011;12670;53.502;10.252;2024-01-15T06:59:25;11.67;;;2.53;;
16119;SDS011;12670;53.502;10.252;2024-01-15T07:02:28;11.80;;;2.67;;
16119;SDS011;12670;53.502;10.252;2024-01-15T07:05:31;18.77;;;2.50;;
16119;SDS011;12670;53.502;10.252;2024-01-15T07:08:33;17.70;;;2.53;;
16119;SDS011;12670;53.502;10.252;2024-01-15T07:11:36;12.97;;;1.90;;
16119;SDS011;12670;53.502;10.252;2024-01-15T07:14:40;13.63;;;2.47;;
16119;SDS011;12670;53.502;10.252;2024-01-15T07:17:44;13.13;;;2.30;;
16119;SDS011;12670;53.502;10.252;2024-01-15T07:20:46;14.27;;;2.57;;
16119;SDS011;12670;53.502;10.252;2024-01-15T07:23:49;11.67;;;2.20;;
16119;SDS011;12670;53.502;10.252;2024-01-15T07:26:52;15.87;;;2.63;;
16119;SDS011;12670;53.502;10.252;2024-01-15T07:29:56;12.40;;;2.10;;
16119;SDS011;12670;53.502;10.252;2024-01-15T07:33:02;11.63;;;2.80;;
16119;SDS011;12670;53.502;10.252;2024-01-15T07:36:06;11.73;;;2.27;;
16119;SDS011;12670;53.502;10.252;2024-01-15T07:39:09;7.80;;;1.90;;
16119;SDS011;12670;53.502;10.252;2024-01-15T07:42:12;20.17;;;2.37;;
16119;SDS011;12670;53.502;10.252;2024-01-15T07:45:16;15.17;;;2.03;;
16119;SDS011;12670;53.502;10.252;2024-01-15T07:48:19;17.37;;;2.67;;
16119;SDS011;12670;53.502;10.252;2024-01-15T07:51:22;12.40;;;1.73;;
16119;SDS011;12670;53.502;10.252;2024-01-15T07:54:25;13.03;;;2.20;;
16119;SDS011;12670;53.502;10.252;2024-01-15T07:57:28;7.43;;;2.00;;
16119;SDS011;12670;53.502;10.252;2024-01-15T08:00:32;7.27;;;1.73;;
16119;SDS011;12670;53.502;10.252;2024-01-15T08:03:35;10.77;;;2.20;;
16119;SDS011;12670;53.502;10.252;2024-01-15T08:06:37;17.43;;;2.23;;
16119;SDS011;12670;53.502;10.252;2024-01-15T08:09:40;9.97;;;1.70;;
16119;SDS011;12670;53.502;10.252;2024-01-15T08:12:43;12.43;;;2.10;;
16119;SDS011;12670;53.502;10.252;2024-01-15T08:15:47;14.73;;;2.43;;
16119;SDS011;12670;53.502;10.252;2024-01-15T08:18:51;12.23;;;1.70;;
16119;SDS011;12670;53.502;10.252;2024-01-15T08:21:54;10.83;;;2.20;;
16119;SDS011;12670;53.502;10.252;2024-01-15T08:24:57;10.93;;;2.23;;
16119;SDS011;12670;53.502;10.252;2024-01-15T08:28:00;12.77;;;1.70;;
16119;SDS011;12670;53.502;10.252;2024-01-15T08:31:04;11.73;;;2.23;;
16119;SDS011;12670;53.502;10.252;2024-01-15T08:34:07;17.77;;;2.30;;
16119;SDS011;12670;53.502;10.252;2024-01-15T08:37:10;8.77;;;1.90;;
16119;SDS011;12670;53.502;10.252;2024-01-15T08:40:12;10.97;;;1.90;;
16119;SDS011;12670;53.502;10.252;2024-01-15T08:43:15;9.57;;;2.20;;
16119;SDS011;12670;53.502;10.252;2024-01-15T08:46:19;11.40;;;2.17;;
16119;SDS011;12670;53.502;10.252;2024-01-15T08:49:22;14.13;;;2.23;;
16119;SDS011;12670;53.502;10.252;2024-01-15T08:52:25;8.33;;;1.83;;
16119;SDS011;12670;53.502;10.252;2024-01-15T08:55:27;10.57;;;1.60;;
16119;SDS011;12670;53.502;10.252;2024-01-15T08:58:30;9.57;;;1.73;;
16119;SDS011;12670;53.502;10.252;2024-01-15T09:01:34;15.80;;;1.70;;
16119;SDS011;12670;53.502;10.252;2024-01-15T09:04:37;9.03;;;1.53;;
16119;SDS011;12670;53.502;10.252;2024-01-15T09:07:40;7.23;;;1.60;;
16119;SDS011;12670;53.502;10.252;2024-01-15T09:10:43;7.40;;;1.80;;
16119;SDS011;12670;53.502;10.252;2024-01-15T09:13:45;12.33;;;2.20;;
16119;SDS011;12670;53.502;10.252;2024-01-15T09:16:50;8.20;;;1.70;;
16119;SDS011;12670;53.502;10.252;2024-01-15T09:19:53;12.80;;;2.17;;
16119;SDS011;12670;53.502;10.252;2024-01-15T09:22:56;9.17;;;1.70;;
16119;SDS011;12670;53.502;10.252;2024-01-15T09:25:59;10.87;;;1.70;;
16119;SDS011;12670;53.502;10.252;2024-01-15T09:29:01;9.50;;;1.70;;
16119;SDS011;12670;53.502;10.252;2024-01-15T09:32:06;4.63;;;1.33;;
16119;SDS011;12670;53.502;10.252;2024-01-15T09:35:09;8.90;;;1.60;;
16119;SDS011;12670;53.502;10.252;2024-01-15T09:38:12;11.00;;;1.73;;
16119;SDS011;12670;53.502;10.252;2024-01-15T09:41:14;12.73;;;1.90;;
16119;SDS011;12670;53.502;10.252;2024-01-15T09:44:17;8.67;;;1.90;;
16119;SDS011;12670;53.502;10.252;2024-01-15T09:47:22;10.20;;;2.40;;
16119;SDS011;12670;53.502;10.252;2024-01-15T09:50:26;10.90;;;1.63;;
16119;SDS011;12670;53.502;10.252;2024-01-15T09:53:29;11.20;;;2.40;;
16119;SDS011;12670;53.502;10.252;2024-01-15T09:56:33;12.13;;;2.40;;
16119;SDS011;12670;53.502;10.252;2024-01-15T09:59:35;15.93;;;2.73;;
16119;SDS011;12670;53.502;10.252;2024-01-15T10:02:41;6.93;;;2.30;;
16119;SDS011;12670;53.502;10.252;2024-01-15T10:05:43;13.83;;;2.20;;
16119;SDS011;12670;53.502;10.252;2024-01-15T10:08:47;10.37;;;1.93;;
16119;SDS011;12670;53.502;10.252;2024-01-15T10:11:51;6.23;;;1.50;;
16119;SDS011;12670;53.502;10.252;2024-01-15T10:14:53;6.03;;;1.70;;
16119;SDS011;12670;53.502;10.252;2024-01-15T10:17:57;6.27;;;1.60;;
16119;SDS011;12670;53.502;10.252;2024-01-15T10:21:01;3.70;;;1.30;;
16119;SDS011;12670;53.502;10.252;2024-01-15T10:24:05;10.03;;;2.07;;
16119;SDS011;12670;53.502;10.252;2024-01-15T10:27:08;6.97;;;1.50;;
16119;SDS011;12670;53.502;10.252;2024-01-15T10:30:12;8.20;;;1.90;;
16119;SDS011;12670;53.502;10.252;2024-01-15T10:33:19;7.93;;;1.97;;
16119;SDS011;12670;53.502;10.252;2024-01-15T10:36:26;10.87;;;1.83;;
16119;SDS011;12670;53.502;10.252;2024-01-15T10:39:29;11.90;;;2.00;;
16119;SDS011;12670;53.502;10.252;2024-01-15T10:42:32;12.40;;;2.00;;
16119;SDS011;12670;53.502;10.252;2024-01-15T10:45:35;8.23;;;1.70;;
16119;SDS011;12670;53.502;10.252;2024-01-15T10:48:39;8.83;;;1.73;;
16119;SDS011;12670;53.502;10.252;2024-01-15T10:51:42;4.83;;;1.27;;
16119;SDS011;12670;53.502;10.252;2024-01-15T10:54:45;5.50;;;1.80;;
16119;SDS011;12670;53.502;10.252;2024-01-15T10:57:48;6.20;;;2.03;;
16119;SDS011;12670;53.502;10.252;2024-01-15T11:00:51;4.70;;;1.90;;
16119;SDS011;12670;53.502;10.252;2024-01-15T11:03:56;8.77;;;2.00;;
16119;SDS011;12670;53.502;10.252;2024-01-15T11:06:59;5.30;;;1.83;;
16119;SDS011;12670;53.502;10.252;2024-01-15T11:10:05;3.73;;;1.50;;
16119;SDS011;12670;53.502;10.252;2024-01-15T11:13:13;2.77;;;1.67;;
16119;SDS011;12670;53.502;10.252;2024-01-15T11:16:17;5.57;;;2.03;;
16119;SDS011;12670;53.502;10.252;2024-01-15T11:19:21;6.10;;;1.53;;
16119;SDS011;12670;53.502;10.252;2024-01-15T11:25:51;4.80;;;1.20;;
16119;SDS011;12670;53.502;10.252;2024-01-15T11:28:54;2.23;;;1.10;;
16119;SDS011;12670;53.502;10.252;2024-01-15T11:32:00;3.63;;;1.20;;
16119;SDS011;12670;53.502;10.252;2024-01-15T11:35:07;6.00;;;1.20;;
16119;SDS011;12670;53.502;10.252;2024-01-15T11:38:11;5.30;;;1.27;;
16119;SDS011;12670;53.502;10.252;2024-01-15T11:41:13;4.50;;;1.10;;
16119;SDS011;12670;53.502;10.252;2024-01-15T11:44:18;6.47;;;1.47;;
16119;SDS011;12670;53.502;10.252;2024-01-15T11:47:29;2.10;;;1.30;;
16119;SDS011;12670;53.502;10.252;2024-01-15T11:50:54;4.87;;;1.70;;
16119;SDS011;12670;53.502;10.252;2024-01-15T11:54:00;3.07;;;1.60;;
16119;SDS011;12670;53.502;10.252;2024-01-15T11:57:12;4.40;;;1.73;;
16119;SDS011;12670;53.502;10.252;2024-01-15T12:00:21;5.57;;;2.03;;
16119;SDS011;12670;53.502;10.252;2024-01-15T12:03:24;3.90;;;1.57;;
16119;SDS011;12670;53.502;10.252;2024-01-15T12:06:28;5.57;;;1.90;;
16119;SDS011;12670;53.502;10.252;2024-01-15T12:09:31;3.93;;;2.20;;
16119;SDS011;12670;53.502;10.252;2024-01-15T12:12:37;5.00;;;2.20;;
16119;SDS011;12670;53.502;10.252;2024-01-15T12:15:54;5.37;;;2.50;;
16119;SDS011;12670;53.502;10.252;2024-01-15T12:18:57;5.73;;;2.70;;
16119;SDS011;12670;53.502;10.252;2024-01-15T12:22:03;4.83;;;2.90;;
16119;SDS011;12670;53.502;10.252;2024-01-15T12:25:06;7.47;;;3.00;;
16119;SDS011;12670;53.502;10.252;2024-01-15T12:28:09;4.20;;;2.87;;
16119;SDS011;12670;53.502;10.252;2024-01-15T12:31:12;4.80;;;2.87;;
16119;SDS011;12670;53.502;10.252;2024-01-15T12:34:16;6.57;;;3.30;;
16119;SDS011;12670;53.502;10.252;2024-01-15T12:37:21;11.93;;;3.90;;
16119;SDS011;12670;53.502;10.252;2024-01-15T12:40:23;7.73;;;3.97;;
16119;SDS011;12670;53.502;10.252;2024-01-15T12:43:26;16.97;;;4.00;;
16119;SDS011;12670;53.502;10.252;2024-01-15T12:46:29;8.93;;;4.30;;
16119;SDS011;12670;53.502;10.252;2024-01-15T12:49:32;9.03;;;4.73;;
16119;SDS011;12670;53.502;10.252;2024-01-15T12:52:36;7.50;;;4.17;;
16119;SDS011;12670;53.502;10.252;2024-01-15T12:55:39;9.00;;;4.10;;
16119;SDS011;12670;53.502;10.252;2024-01-15T12:58:42;10.63;;;4.23;;
16119;SDS011;12670;53.502;10.252;2024-01-15T13:01:45;8.00;;;3.37;;
16119;SDS011;12670;53.502;10.252;2024-01-15T13:04:48;6.40;;;2.97;;
16119;SDS011;12670;53.502;10.252;2024-01-15T13:07:53;9.13;;;3.20;;
16119;SDS011;12670;53.502;10.252;2024-01-15T13:10:55;12.80;;;2.97;;
16119;SDS011;12670;53.502;10.252;2024-01-15T13:13:58;12.17;;;5.73;;
16119;SDS011;12670;53.502;10.252;2024-01-15T13:17:01;5.73;;;2.10;;
16119;SDS011;12670;53.502;10.252;2024-01-15T13:20:05;7.33;;;2.00;;
16119;SDS011;12670;53.502;10.252;2024-01-15T13:23:10;4.40;;;1.87;;
16119;SDS011;12670;53.502;10.252;2024-01-15T13:26:14;3.93;;;1.80;;
16119;SDS011;12670;53.502;10.252;2024-01-15T13:29:16;5.47;;;2.20;;
16119;SDS011;12670;53.502;10.252;2024-01-15T13:32:22;7.27;;;2.50;;
16119;SDS011;12670;53.502;10.252;2024-01-15T13:35:27;7.13;;;2.20;;
16119;SDS011;12670;53.502;10.252;2024-01-15T13:38:31;11.50;;;2.30;;
16119;SDS011;12670;53.502;10.252;2024-01-15T13:41:37;5.07;;;2.50;;
16119;SDS011;12670;53.502;10.252;2024-01-15T13:44:40;7.00;;;3.47;;
16119;SDS011;12670;53.502;10.252;2024-01-15T13:47:43;5.83;;;3.50;;
16119;SDS011;12670;53.502;10.252;2024-01-15T13:50:46;4.27;;;3.23;;
16119;SDS011;12670;53.502;10.252;2024-01-15T13:53:50;8.20;;;3.80;;
16119;SDS011;12670;53.502;10.252;2024-01-15T13:56:54;5.70;;;3.80;;
16119;SDS011;12670;53.502;10.252;2024-01-15T13:59:56;7.70;;;3.90;;
16119;SDS011;12670;53.502;10.252;2024-01-15T14:02:59;5.63;;;3.67;;
16119;SDS011;12670;53.502;10.252;2024-01-15T14:06:02;8.13;;;4.10;;
16119;SDS011;12670;53.502;10.252;2024-01-15T14:09:11;6.20;;;3.70;;
16119;SDS011;12670;53.502;10.252;2024-01-15T14:12:15;7.53;;;3.80;;
16119;SDS011;12670;53.502;10.252;2024-01-15T14:15:18;10.80;;;3.93;;
16119;SDS011;12670;53.502;10.252;2024-01-15T14:18:22;7.40;;;4.10;;
16119;SDS011;12670;53.502;10.252;2024-01-15T14:21:25;7.70;;;3.67;;
16119;SDS011;12670;53.502;10.252;2024-01-15T14:24:29;6.83;;;4.23;;
16119;SDS011;12670;53.502;10.252;2024-01-15T14:27:32;9.33;;;4.47;;
16119;SDS011;12670;53.502;10.252;2024-01-15T14:30:35;6.57;;;4.30;;
16119;SDS011;12670;53.502;10.252;2024-01-15T14:33:38;7.73;;;4.47;;
16119;SDS011;12670;53.502;10.252;2024-01-15T14:36:41;7.43;;;3.90;;
16119;SDS011;12670;53.502;10.252;2024-01-15T14:39:45;10.33;;;4.00;;
16119;SDS011;12670;53.502;10.252;2024-01-15T14:42:48;8.43;;;4.10;;
16119;SDS011;12670;53.502;10.252;2024-01-15T14:45:50;7.40;;;4.33;;
16119;SDS011;12670;53.502;10.252;2024-01-15T14:48:53;6.47;;;3.70;;
16119;SDS011;12670;53.502;10.252;2024-01-15T14:51:56;6.23;;;3.97;;
16119;SDS011;12670;53.502;10.252;2024-01-15T14:55:00;9.63;;;3.80;;
16119;SDS011;12670;53.502;10.252;2024-01-15T14:58:03;8.07;;;4.07;;
16119;SDS011;12670;53.502;10.252;2024-01-15T15:01:06;10.73;;;4.00;;
16119;SDS011;12670;53.502;10.252;2024-01-15T15:04:09;12.67;;;4.30;;
16119;SDS011;12670;53.502;10.252;2024-01-15T15:07:12;13.77;;;4.53;;
16119;SDS011;12670;53.502;10.252;2024-01-15T15:10:16;6.90;;;3.87;;
16119;SDS011;12670;53.502;10.252;2024-01-15T15:13:19;8.47;;;4.40;;
16119;SDS011;12670;53.502;10.252;2024-01-15T15:16:38;11.20;;;4.53;;
16119;SDS011;12670;53.502;10.252;2024-01-15T15:19:41;7.40;;;4.13;;
16119;SDS011;12670;53.502;10.252;2024-01-15T15:22:44;11.53;;;4.43;;
16119;SDS011;12670;53.502;10.252;2024-01-15T15:25:48;14.80;;;4.03;;
16119;SDS011;12670;53.502;10.252;2024-01-15T15:28:51;23.23;;;4.87;;
16119;SDS011;12670;53.502;10.252;2024-01-15T15:31:53;12.67;;;4.37;;
16119;SDS011;12670;53.502;10.252;2024-01-15T15:34:56;7.47;;;4.27;;
16119;SDS011;12670;53.502;10.252;2024-01-15T15:37:59;6.37;;;3.87;;
16119;SDS011;12670;53.502;10.252;2024-01-15T15:41:03;8.60;;;3.73;;
16119;SDS011;12670;53.502;10.252;2024-01-15T15:44:06;7.23;;;4.37;;
16119;SDS011;12670;53.502;10.252;2024-01-15T15:47:10;8.43;;;4.80;;
16119;SDS011;12670;53.502;10.252;2024-01-15T15:50:12;12.60;;;5.27;;
16119;SDS011;12670;53.502;10.252;2024-01-15T15:53:15;8.17;;;4.30;;
16119;SDS011;12670;53.502;10.252;2024-01-15T15:56:19;9.43;;;5.37;;
16119;SDS011;12670;53.502;10.252;2024-01-15T15:59:22;12.87;;;5.47;;
16119;SDS011;12670;53.502;10.252;2024-01-15T16:02:25;11.00;;;5.37;;
16119;SDS011;12670;53.502;10.252;2024-01-15T16:05:28;10.77;;;5.47;;
16119;SDS011;12670;53.502;10.252;2024-01-15T16:08:45;11.07;;;6.00;;
16119;SDS011;12670;53.502;10.252;2024-01-15T16:11:49;14.17;;;5.97;;
16119;SDS011;12670;53.502;10.252;2024-01-15T16:14:52;13.13;;;6.03;;
16119;SDS011;12670;53.502;10.252;2024-01-15T16:17:54;12.70;;;6.13;;
16119;SDS011;12670;53.502;10.252;2024-01-15T16:21:17;11.27;;;6.23;;
16119;SDS011;12670;53.502;10.252;2024-01-15T16:24:40;12.50;;;6.73;;
16119;SDS011;12670;53.502;10.252;2024-01-15T16:27:54;11.20;;;6.40;;
16119;SDS011;12670;53.502;10.252;2024-01-15T16:30:57;14.37;;;6.87;;
16119;SDS011;12670;53.502;10.252;2024-01-15T16:34:08;12.27;;;6.80;;
16119;SDS011;12670;53.502;10.252;2024-01-15T16:37:13;12.13;;;6.83;;
16119;SDS011;12670;53.502;10.252;2024-01-15T16:40:16;18.00;;;8.60;;
16119;SDS011;12670;53.502;10.252;2024-01-15T16:43:21;15.27;;;7.37;;
16119;SDS011;12670;53.502;10.252;2024-01-15T16:46:24;14.43;;;7.97;;
16119;SDS011;12670;53.502;10.252;2024-01-15T16:49:27;15.00;;;8.13;;
16119;SDS011;12670;53.502;10.252;2024-01-15T16:52:30;20.10;;;8.00;;
16119;SDS011;12670;53.502;10.252;2024-01-15T16:55:33;14.00;;;7.60;;
16119;SDS011;12670;53.502;10.252;2024-01-15T16:58:37;17.07;;;8.27;;
16119;SDS011;12670;53.502;10.252;2024-01-15T17:01:39;15.73;;;8.63;;
16119;SDS011;12670;53.502;10.252;2024-01-15T17:04:42;17.80;;;9.03;;
16119;SDS011;12670;53.502;10.252;2024-01-15T17:07:45;19.67;;;8.23;;
16119;SDS011;12670;53.502;10.252;2024-01-15T17:10:47;16.50;;;8.63;;
16119;SDS011;12670;53.502;10.252;2024-01-15T17:13:51;16.57;;;8.93;;
16119;SDS011;12670;53.502;10.252;2024-01-15T17:16:54;15.87;;;9.37;;
16119;SDS011;12670;53.502;10.252;2024-01-15T17:19:57;17.93;;;9.13;;
16119;SDS011;12670;53.502;10.252;2024-01-15T17:23:00;20.10;;;9.97;;
16119;SDS011;12670;53.502;10.252;2024-01-15T17:26:03;22.17;;;9.30;;
16119;SDS011;12670;53.502;10.252;2024-01-15T17:29:07;18.03;;;9.27;;
16119;SDS011;12670;53.502;10.252;2024-01-15T17:32:11;14.87;;;8.23;;
16119;SDS011;12670;53.502;10.252;2024-01-15T17:35:13;17.20;;;8.47;;
16119;SDS011;12670;53.502;10.252;2024-01-15T17:38:16;15.20;;;8.17;;
16119;SDS011;12670;53.502;10.252;2024-01-15T17:41:19;18.30;;;8.43;;
16119;SDS011;12670;53.502;10.252;2024-01-15T17:44:23;16.83;;;8.10;;
16119;SDS011;12670;53.502;10.252;2024-01-15T17:47:26;16.03;;;7.83;;
16119;SDS011;12670;53.502;10.252;2024-01-15T17:50:29;20.00;;;8.03;;
16119;SDS011;12670;53.502;10.252;2024-01-15T17:53:33;14.10;;;7.27;;
16119;SDS011;12670;53.502;10.252;2024-01-15T17:56:35;14.57;;;7.00;;
16119;SDS011;12670;53.502;10.252;2024-01-15T17:59:41;13.93;;;6.50;;
16119;SDS011;12670;53.502;10.252;2024-01-15T18:02:44;16.20;;;7.37;;